sensor_id;sensor_type;location;lat;lon;timestamp;temperature;humidity
62154;DHT22;48140;45.486;9.226;2023-08-06T00:01:03;22.40;79.00
62154;DHT22;48140;45.486;9.226;2023-08-06T00:03:29;22.40;78.90
62154;DHT22;48140;45.486;9.226;2023-08-06T00:05:54;22.40;79.20
62154;DHT22;48140;45.486;9.226;2023-08-06T00:08:21;21.90;80.50
62154;DHT22;48140;45.486;9.226;2023-08-06T00:10:47;22.40;79.60
62154;DHT22;48140;45.486;9.226;2023-08-06T00:13:13;22.40;80.40
62154;DHT22;48140;45.486;9.226;2023-08-06T00:15:39;22.40;80.60
62154;DHT22;48140;45.486;9.226;2023-08-06T00:18:05;22.40;81.70
62154;DHT22;48140;45.486;9.226;2023-08-06T00:20:30;22.40;82.70
62154;DHT22;48140;45.486;9.226;2023-08-06T00:22:56;22.40;82.80
62154;DHT22;48140;45.486;9.226;2023-08-06T00:25:21;22.40;83.40
62154;DHT22;48140;45.486;9.226;2023-08-06T09:26:34;27.90;27.60
62154;DHT22;48140;45.486;9.226;2023-08-06T09:29:01;28.00;26.10
62154;DHT22;48140;45.486;9.226;2023-08-06T09:31:45;28.20;25.50
62154;DHT22;48140;45.486;9.226;2023-08-06T09:34:20;28.30;26.40
62154;DHT22;48140;45.486;9.226;2023-08-06T09:39:21;28.30;23.30
62154;DHT22;48140;45.486;9.226;2023-08-06T09:49:45;28.40;23.20
62154;DHT22;48140;45.486;9.226;2023-08-06T09:52:11;28.40;23.60
62154;DHT22;48140;45.486;9.226;2023-08-06T09:57:14;28.80;23.60
62154;DHT22;48140;45.486;9.226;2023-08-06T09:59:40;29.00;23.00
62154;DHT22;48140;45.486;9.226;2023-08-06T10:02:10;29.00;22.60
62154;DHT22;48140;45.486;9.226;2023-08-06T10:04:37;28.90;22.00
62154;DHT22;48140;45.486;9.226;2023-08-06T10:07:03;28.70;22.50
62154;DHT22;48140;45.486;9.226;2023-08-06T10:09:29;29.00;22.50
62154;DHT22;48140;45.486;9.226;2023-08-06T10:19:47;28.80;22.00
62154;DHT22;48140;45.486;9.226;2023-08-06T10:22:34;29.10;23.50
62154;DHT22;48140;45.486;9.226;2023-08-06T10:25:02;29.20;22.20
62154;DHT22;48140;45.486;9.226;2023-08-06T10:32:48;30.00;21.20
62154;DHT22;48140;45.486;9.226;2023-08-06T10:35:37;29.90;22.70
62154;DHT22;48140;45.486;9.226;2023-08-06T10:38:25;30.20;22.50
62154;DHT22;48140;45.486;9.226;2023-08-06T10:57:12;29.90;21.00
62154;DHT22;48140;45.486;9.226;2023-08-06T10:59:54;29.90;21.30
62154;DHT22;48140;45.486;9.226;2023-08-06T11:02:37;29.90;21.30
62154;DHT22;48140;45.486;9.226;2023-08-06T11:05:07;29.70;21.60
62154;DHT22;48140;45.486;9.226;2023-08-06T11:07:33;29.60;21.10
62154;DHT22;48140;45.486;9.226;2023-08-06T11:10:06;30.30;21.00
62154;DHT22;48140;45.486;9.226;2023-08-06T11:12:35;30.70;20.10
62154;DHT22;48140;45.486;9.226;2023-08-06T11:20:54;30.10;22.20
62154;DHT22;48140;45.486;9.226;2023-08-06T11:29:05;30.50;21.20
62154;DHT22;48140;45.486;9.226;2023-08-06T11:31:35;30.40;22.00
62154;DHT22;48140;45.486;9.226;2023-08-06T11:34:17;30.70;21.60
62154;DHT22;48140;45.486;9.226;2023-08-06T11:36:46;30.70;24.70
62154;DHT22;48140;45.486;9.226;2023-08-06T11:39:12;30.20;25.40
62154;DHT22;48140;45.486;9.226;2023-08-06T11:47:04;30.40;24.30
62154;DHT22;48140;45.486;9.226;2023-08-06T11:54:42;29.80;24.10
62154;DHT22;48140;45.486;9.226;2023-08-06T11:57:10;29.80;23.50
62154;DHT22;48140;45.486;9.226;2023-08-06T11:59:41;30.70;23.60
62154;DHT22;48140;45.486;9.226;2023-08-06T12:02:13;30.20;25.20
62154;DHT22;48140;45.486;9.226;2023-08-06T12:04:58;30.00;26.30
62154;DHT22;48140;45.486;9.226;2023-08-06T12:07:31;29.80;26.20
62154;DHT22;48140;45.486;9.226;2023-08-06T12:09:57;29.70;27.20
62154;DHT22;48140;45.486;9.226;2023-08-06T12:12:29;29.50;27.10
62154;DHT22;48140;45.486;9.226;2023-08-06T12:15:03;29.70;27.10
62154;DHT22;48140;45.486;9.226;2023-08-06T12:20:21;30.30;26.20
62154;DHT22;48140;45.486;9.226;2023-08-06T12:22:53;30.20;25.80
62154;DHT22;48140;45.486;9.226;2023-08-06T12:25:29;29.90;25.80
62154;DHT22;48140;45.486;9.226;2023-08-06T12:28:08;30.00;25.10
62154;DHT22;48140;45.486;9.226;2023-08-06T12:33:38;29.60;25.50
62154;DHT22;48140;45.486;9.226;2023-08-06T14:28:10;32.70;13.90
62154;DHT22;48140;45.486;9.226;2023-08-06T14:30:35;32.50;13.80
62154;DHT22;48140;45.486;9.226;2023-08-06T14:33:01;32.40;14.10
62154;DHT22;48140;45.486;9.226;2023-08-06T14:35:27;32.30;13.70
62154;DHT22;48140;45.486;9.226;2023-08-06T14:37:52;32.30;13.60
62154;DHT22;48140;45.486;9.226;2023-08-06T14:40:18;32.60;13.70
62154;DHT22;48140;45.486;9.226;2023-08-06T14:42:43;32.20;13.70
62154;DHT22;48140;45.486;9.226;2023-08-06T14:45:09;32.20;14.20
62154;DHT22;48140;45.486;9.226;2023-08-06T14:47:35;32.30;14.40
62154;DHT22;48140;45.486;9.226;2023-08-06T14:50:00;32.60;14.10
62154;DHT22;48140;45.486;9.226;2023-08-06T15:02:47;32.10;14.80
62154;DHT22;48140;45.486;9.226;2023-08-06T15:05:22;32.60;15.20
62154;DHT22;48140;45.486;9.226;2023-08-06T15:07:57;32.80;15.20
62154;DHT22;48140;45.486;9.226;2023-08-06T15:10:35;33.00;15.00
62154;DHT22;48140;45.486;9.226;2023-08-06T15:13:01;32.60;14.70
62154;DHT22;48140;45.486;9.226;2023-08-06T15:15:28;32.80;15.00
62154;DHT22;48140;45.486;9.226;2023-08-06T15:17:56;33.00;15.20
62154;DHT22;48140;45.486;9.226;2023-08-06T15:20:23;33.20;15.20
62154;DHT22;48140;45.486;9.226;2023-08-06T15:22:49;33.00;15.20
62154;DHT22;48140;45.486;9.226;2023-08-06T15:25:14;33.40;15.30
62154;DHT22;48140;45.486;9.226;2023-08-06T15:28:04;33.00;15.60
62154;DHT22;48140;45.486;9.226;2023-08-06T15:30:31;32.90;16.00
62154;DHT22;48140;45.486;9.226;2023-08-06T15:33:10;32.60;15.70
62154;DHT22;48140;45.486;9.226;2023-08-06T15:35:39;32.70;16.10
62154;DHT22;48140;45.486;9.226;2023-08-06T15:38:04;32.70;16.20
62154;DHT22;48140;45.486;9.226;2023-08-06T15:40:30;32.90;16.10
62154;DHT22;48140;45.486;9.226;2023-08-06T15:42:56;32.80;15.70
62154;DHT22;48140;45.486;9.226;2023-08-06T15:45:25;32.90;15.60
62154;DHT22;48140;45.486;9.226;2023-08-06T15:47:59;32.70;15.80
62154;DHT22;48140;45.486;9.226;2023-08-06T15:50:25;32.50;16.00
62154;DHT22;48140;45.486;9.226;2023-08-06T15:53:01;32.30;16.20
62154;DHT22;48140;45.486;9.226;2023-08-06T15:55:39;32.10;16.40
62154;DHT22;48140;45.486;9.226;2023-08-06T15:58:07;31.90;16.60
62154;DHT22;48140;45.486;9.226;2023-08-06T16:00:33;31.80;16.20
62154;DHT22;48140;45.486;9.226;2023-08-06T16:02:58;31.80;16.50
62154;DHT22;48140;45.486;9.226;2023-08-06T16:05:27;31.90;16.70
62154;DHT22;48140;45.486;9.226;2023-08-06T16:07:56;32.00;16.60
62154;DHT22;48140;45.486;9.226;2023-08-06T16:10:22;32.30;16.30
62154;DHT22;48140;45.486;9.226;2023-08-06T16:12:48;32.20;15.90
62154;DHT22;48140;45.486;9.226;2023-08-06T16:15:13;31.50;16.30
62154;DHT22;48140;45.486;9.226;2023-08-06T16:17:44;31.40;16.60
62154;DHT22;48140;45.486;9.226;2023-08-06T16:20:42;31.60;16.50
62154;DHT22;48140;45.486;9.226;2023-08-06T16:23:24;31.70;17.40
62154;DHT22;48140;45.486;9.226;2023-08-06T16:25:50;31.30;16.00
62154;DHT22;48140;45.486;9.226;2023-08-06T16:28:16;31.20;16.50
62154;DHT22;48140;45.486;9.226;2023-08-06T16:30:43;31.20;16.60
62154;DHT22;48140;45.486;9.226;2023-08-06T16:33:29;31.20;17.40
62154;DHT22;48140;45.486;9.226;2023-08-06T16:35:57;30.90;16.70
62154;DHT22;48140;45.486;9.226;2023-08-06T16:38:23;30.80;16.30
62154;DHT22;48140;45.486;9.226;2023-08-06T16:40:58;30.90;16.70
62154;DHT22;48140;45.486;9.226;2023-08-06T16:43:24;31.10;16.70
62154;DHT22;48140;45.486;9.226;2023-08-06T16:45:53;31.00;16.40
62154;DHT22;48140;45.486;9.226;2023-08-06T16:48:24;31.10;16.50
62154;DHT22;48140;45.486;9.226;2023-08-06T16:50:54;31.10;16.40
62154;DHT22;48140;45.486;9.226;2023-08-06T16:53:20;30.90;16.30
62154;DHT22;48140;45.486;9.226;2023-08-06T16:55:47;30.70;16.50
62154;DHT22;48140;45.486;9.226;2023-08-06T16:58:16;30.80;16.40
62154;DHT22;48140;45.486;9.226;2023-08-06T17:00:45;30.80;16.50
62154;DHT22;48140;45.486;9.226;2023-08-06T17:03:14;30.80;16.80
62154;DHT22;48140;45.486;9.226;2023-08-06T17:05:46;31.00;16.80
62154;DHT22;48140;45.486;9.226;2023-08-06T17:08:12;31.00;16.60
62154;DHT22;48140;45.486;9.226;2023-08-06T17:10:45;30.90;16.90
62154;DHT22;48140;45.486;9.226;2023-08-06T17:13:24;30.60;16.60
62154;DHT22;48140;45.486;9.226;2023-08-06T17:15:50;30.60;17.20
62154;DHT22;48140;45.486;9.226;2023-08-06T17:18:17;30.60;17.00
62154;DHT22;48140;45.486;9.226;2023-08-06T17:20:44;30.70;16.80
62154;DHT22;48140;45.486;9.226;2023-08-06T17:25:48;30.60;17.20
62154;DHT22;48140;45.486;9.226;2023-08-06T17:28:15;30.50;16.60
62154;DHT22;48140;45.486;9.226;2023-08-06T17:30:42;30.20;16.70
62154;DHT22;48140;45.486;9.226;2023-08-06T17:33:08;30.00;17.50
62154;DHT22;48140;45.486;9.226;2023-08-06T17:35:34;30.00;17.40
62154;DHT22;48140;45.486;9.226;2023-08-06T17:38:02;30.00;17.50
62154;DHT22;48140;45.486;9.226;2023-08-06T17:40:31;29.90;17.50
62154;DHT22;48140;45.486;9.226;2023-08-06T17:42:57;29.70;17.60
62154;DHT22;48140;45.486;9.226;2023-08-06T17:45:22;29.60;17.30
62154;DHT22;48140;45.486;9.226;2023-08-06T17:47:48;29.40;17.70
62154;DHT22;48140;45.486;9.226;2023-08-06T17:50:16;29.40;17.50
62154;DHT22;48140;45.486;9.226;2023-08-06T17:52:42;29.30;17.60
62154;DHT22;48140;45.486;9.226;2023-08-06T17:55:20;29.10;17.90
62154;DHT22;48140;45.486;9.226;2023-08-06T17:57:56;29.00;18.20
62154;DHT22;48140;45.486;9.226;2023-08-06T18:00:45;28.90;18.50
62154;DHT22;48140;45.486;9.226;2023-08-06T18:03:14;28.90;18.60
62154;DHT22;48140;45.486;9.226;2023-08-06T18:05:42;28.60;18.70
62154;DHT22;48140;45.486;9.226;2023-08-06T18:08:08;28.50;19.20
62154;DHT22;48140;45.486;9.226;2023-08-06T18:13:11;28.20;19.80
62154;DHT22;48140;45.486;9.226;2023-08-06T18:15:52;28.10;19.70
62154;DHT22;48140;45.486;9.226;2023-08-06T18:18:18;28.00;19.90
62154;DHT22;48140;45.486;9.226;2023-08-06T18:20:43;27.80;20.10
62154;DHT22;48140;45.486;9.226;2023-08-06T18:23:09;27.70;20.20
62154;DHT22;48140;45.486;9.226;2023-08-06T18:25:38;27.50;20.30
62154;DHT22;48140;45.486;9.226;2023-08-06T18:28:56;27.50;20.60
62154;DHT22;48140;45.486;9.226;2023-08-06T18:54:41;26.50;20.30
62154;DHT22;48140;45.486;9.226;2023-08-06T18:57:12;26.50;20.30
62154;DHT22;48140;45.486;9.226;2023-08-06T19:03:13;26.40;19.80
62154;DHT22;48140;45.486;9.226;2023-08-06T19:06:17;26.40;19.80
62154;DHT22;48140;45.486;9.226;2023-08-06T19:17:08;26.10;20.00
62154;DHT22;48140;45.486;9.226;2023-08-06T19:19:34;26.00;20.10
62154;DHT22;48140;45.486;9.226;2023-08-06T19:22:00;25.90;20.40
62154;DHT22;48140;45.486;9.226;2023-08-06T19:24:25;25.90;20.60
62154;DHT22;48140;45.486;9.226;2023-08-06T19:26:51;25.80;20.50
62154;DHT22;48140;45.486;9.226;2023-08-06T19:29:16;25.70;20.80
62154;DHT22;48140;45.486;9.226;2023-08-06T19:31:42;25.70;20.90
62154;DHT22;48140;45.486;9.226;2023-08-06T19:34:08;25.60;21.10
62154;DHT22;48140;45.486;9.226;2023-08-06T19:36:33;25.50;21.20
62154;DHT22;48140;45.486;9.226;2023-08-06T21:25:38;24.00;22.70
